Time;durP1;ratioP1;P1;durP2;ratioP2;P2;SDS_P1;SDS_P2;PMS_P1;PMS_P2;Temp;Humidity;BMP_temperature;BMP_pressure;BME280_temperature;BME280_humidity;BME280_pressure;Samples;Min_cycle;Max_cycle;Signal;HPM_P1;HPM_P2
2021/03/30 00:00:40;;;;;;;99.40;47.20;;;8.00;99.90;;;;;;5055015;28;20100;-77
2021/03/30 00:03:05;;;;;;;99.72;45.05;;;8.00;99.90;;;;;;5053796;28;20023;-77
2021/03/30 00:05:31;;;;;;;110.22;49.50;;;8.00;99.90;;;;;;5053508;28;20437;-77
2021/03/30 00:07:57;;;;;;;113.63;47.47;;;7.90;99.90;;;;;;5054446;28;20048;-78
2021/03/30 00:10:33;;;;;;;102.85;48.88;;;7.90;99.90;;;;;;5053503;28;20024;-77
2021/03/30 00:12:58;;;;;;;100.45;47.95;;;7.90;99.90;;;;;;5054863;28;20094;-77
2021/03/30 00:15:24;;;;;;;127.50;62.58;;;7.90;99.90;;;;;;5053451;28;20566;-77
2021/03/30 00:17:50;;;;;;;212.88;84.05;;;7.90;99.90;;;;;;5053269;28;20151;-78
2021/03/30 00:20:16;;;;;;;114.53;52.72;;;7.90;99.90;;;;;;5054605;28;20029;-77
2021/03/30 00:22:42;;;;;;;105.50;50.55;;;7.90;99.90;;;;;;5054403;28;20074;-78
2021/03/30 00:25:09;;;;;;;115.03;49.75;;;7.90;99.90;;;;;;5054273;28;20078;-77
2021/03/30 00:27:35;;;;;;;108.70;48.60;;;7.90;99.90;;;;;;5053589;28;20044;-78
2021/03/30 00:30:01;;;;;;;112.40;50.42;;;7.90;99.90;;;;;;5054453;28;20025;-78
2021/03/30 00:32:27;;;;;;;117.82;50.00;;;7.90;99.90;;;;;;5054425;28;20036;-78
2021/03/30 00:34:52;;;;;;;130.40;59.40;;;7.90;99.90;;;;;;5053148;28;20445;-77
2021/03/30 00:37:18;;;;;;;119.78;53.67;;;7.90;99.90;;;;;;5052190;28;20013;-77
2021/03/30 00:39:44;;;;;;;110.50;47.65;;;7.90;99.90;;;;;;5054224;28;20025;-77
2021/03/30 00:42:10;;;;;;;116.82;50.03;;;7.90;99.90;;;;;;5053958;28;20031;-77
2021/03/30 00:44:36;;;;;;;110.15;51.70;;;7.90;99.90;;;;;;5052958;28;20021;-77
2021/03/30 00:47:02;;;;;;;135.95;66.28;;;7.90;99.90;;;;;;5052558;28;20429;-78
2021/03/30 00:49:32;;;;;;;132.60;68.30;;;7.90;99.90;;;;;;5053955;28;20025;-77
2021/03/30 00:51:58;;;;;;;201.13;78.38;;;8.00;99.90;;;;;;5052674;28;20113;-77
2021/03/30 00:54:26;;;;;;;249.80;94.40;;;8.00;99.90;;;;;;5052635;28;20049;-77
2021/03/30 00:56:52;;;;;;;188.50;70.13;;;8.00;99.90;;;;;;5053966;28;20060;-77
2021/03/30 00:59:19;;;;;;;138.32;55.72;;;8.00;99.90;;;;;;5052588;28;20048;-77
2021/03/30 01:01:46;;;;;;;132.40;57.38;;;8.00;99.90;;;;;;5053910;28;20029;-77
2021/03/30 01:04:12;;;;;;;120.60;52.10;;;8.00;99.90;;;;;;5052505;28;20021;-76
2021/03/30 01:06:39;;;;;;;115.40;50.00;;;8.00;99.90;;;;;;5053484;28;20055;-77
2021/03/30 01:09:26;;;;;;;111.97;48.30;;;8.10;99.90;;;;;;5053570;28;20032;-77
2021/03/30 01:12:10;;;;;;;112.35;50.53;;;8.10;99.90;;;;;;5053636;28;20040;-77
2021/03/30 01:14:54;;;;;;;122.35;51.72;;;8.10;99.90;;;;;;5053691;28;20052;-77
2021/03/30 01:17:29;;;;;;;100.75;42.28;;;8.10;99.90;;;;;;5053604;28;20029;-77
2021/03/30 01:20:32;;;;;;;114.20;48.40;;;8.00;99.90;;;;;;5052319;28;20033;-77
2021/03/30 01:23:00;;;;;;;102.20;46.42;;;8.10;99.90;;;;;;5053585;28;20028;-77
2021/03/30 01:25:27;;;;;;;101.70;46.13;;;8.10;99.90;;;;;;5053297;28;20044;-78
2021/03/30 01:28:10;;;;;;;119.70;50.75;;;8.00;99.90;;;;;;5052025;28;20021;-78
2021/03/30 01:30:37;;;;;;;118.53;52.38;;;8.00;99.90;;;;;;5051938;28;20025;-76
2021/03/30 01:33:09;;;;;;;111.95;48.28;;;8.10;99.90;;;;;;5053366;28;20071;-78
2021/03/30 01:35:38;;;;;;;139.82;64.88;;;8.00;99.90;;;;;;5053329;28;20525;-77
2021/03/30 01:38:05;;;;;;;112.78;48.20;;;8.00;99.90;;;;;;5051381;28;20017;-78
2021/03/30 01:40:34;;;;;;;130.35;49.70;;;8.00;99.90;;;;;;5051602;28;20094;-77
2021/03/30 01:43:02;;;;;;;119.68;47.53;;;8.00;99.90;;;;;;5053181;28;20479;-77
2021/03/30 01:45:32;;;;;;;125.30;52.67;;;8.00;99.90;;;;;;5051657;28;20123;-77
2021/03/30 01:47:58;;;;;;;118.95;50.15;;;8.00;99.90;;;;;;5052790;28;20037;-77
2021/03/30 01:50:25;;;;;;;112.70;46.88;;;8.00;99.90;;;;;;5051717;28;20021;-77
2021/03/30 01:52:52;;;;;;;124.13;50.58;;;8.00;99.90;;;;;;5051604;28;20041;-77
2021/03/30 01:55:19;;;;;;;131.85;50.78;;;8.00;99.90;;;;;;5052893;28;20506;-77
2021/03/30 01:57:49;;;;;;;132.40;51.88;;;8.00;99.90;;;;;;5051722;28;20021;-77
2021/03/30 02:00:17;;;;;;;125.82;50.72;;;8.00;99.90;;;;;;5052759;28;20060;-77
2021/03/30 02:02:44;;;;;;;134.98;51.80;;;8.00;99.90;;;;;;5051642;28;20129;-78
2021/03/30 02:05:12;;;;;;;127.82;53.15;;;8.00;99.90;;;;;;5051360;28;20493;-77
2021/03/30 02:07:39;;;;;;;121.05;51.53;;;8.10;99.90;;;;;;5051021;28;20501;-76
2021/03/30 02:10:11;;;;;;;119.82;50.38;;;8.10;99.90;;;;;;5051536;28;20025;-78
2021/03/30 02:12:42;;;;;;;124.07;56.10;;;8.10;99.90;;;;;;5051397;28;20033;-78
2021/03/30 02:15:13;;;;;;;131.02;54.55;;;8.10;99.90;;;;;;5051692;28;20067;-77
2021/03/30 02:17:53;;;;;;;136.15;59.70;;;8.10;99.90;;;;;;5052657;28;20368;-77
2021/03/30 02:20:28;;;;;;;149.65;59.22;;;8.10;99.90;;;;;;5051226;28;20260;-77
2021/03/30 02:23:00;;;;;;;141.45;60.13;;;8.10;99.90;;;;;;5052845;28;20037;-77
2021/03/30 02:25:28;;;;;;;123.68;52.30;;;8.10;99.90;;;;;;5052580;28;20430;-77
2021/03/30 02:27:55;;;;;;;129.38;56.45;;;8.10;99.90;;;;;;5052701;28;20021;-77
2021/03/30 02:30:25;;;;;;;128.30;52.20;;;8.20;99.90;;;;;;5050926;28;20056;-77
2021/03/30 02:32:54;;;;;;;132.32;53.90;;;8.20;99.90;;;;;;5050503;28;20478;-78
2021/03/30 02:35:23;;;;;;;128.38;54.80;;;8.20;99.90;;;;;;5051071;28;20048;-77
2021/03/30 02:37:50;;;;;;;140.48;52.35;;;8.20;99.90;;;;;;5052139;28;20017;-76
2021/03/30 02:40:19;;;;;;;176.20;68.25;;;8.20;99.90;;;;;;5052456;28;20032;-76
2021/03/30 02:42:47;;;;;;;284.67;97.03;;;8.20;99.90;;;;;;5052244;28;20413;-77
2021/03/30 02:45:16;;;;;;;227.38;79.15;;;8.20;99.90;;;;;;5052330;28;20029;-77
2021/03/30 02:47:44;;;;;;;426.60;133.48;;;8.20;99.90;;;;;;5052292;28;20033;-79
2021/03/30 02:50:12;;;;;;;406.05;132.13;;;8.20;99.90;;;;;;5051233;28;20377;-77
2021/03/30 02:52:38;;;;;;;366.55;121.40;;;8.10;99.90;;;;;;5055026;28;20026;-78
2021/03/30 02:55:06;;;;;;;271.80;94.25;;;8.10;99.90;;;;;;5055020;28;20440;-78
2021/03/30 02:57:32;;;;;;;187.02;69.88;;;8.10;99.90;;;;;;5055021;28;20040;-77
2021/03/30 02:59:59;;;;;;;236.20;82.82;;;8.10;99.90;;;;;;5054978;28;20055;-77
2021/03/30 03:02:26;;;;;;;423.60;126.40;;;8.10;99.90;;;;;;5055686;28;20023;-77
2021/03/30 03:04:52;;;;;;;482.98;149.98;;;8.10;99.90;;;;;;5056163;28;20029;-78
2021/03/30 03:07:19;;;;;;;216.25;77.70;;;8.10;99.90;;;;;;5054043;28;20497;-78
2021/03/30 03:09:46;;;;;;;258.17;100.13;;;8.10;99.90;;;;;;5055947;28;20033;-78
2021/03/30 03:12:12;;;;;;;182.75;69.10;;;8.10;99.90;;;;;;5054415;28;20017;-77
2021/03/30 03:14:42;;;;;;;354.10;117.97;;;8.10;99.90;;;;;;5054053;28;20422;-77
2021/03/30 03:17:09;;;;;;;220.70;83.22;;;8.10;99.90;;;;;;5053917;28;20037;-77
2021/03/30 03:19:36;;;;;;;304.83;117.13;;;8.10;99.90;;;;;;5053809;28;20028;-77
2021/03/30 03:22:08;;;;;;;145.40;58.42;;;8.10;99.90;;;;;;5055428;28;20033;-78
2021/03/30 03:24:34;;;;;;;137.93;56.20;;;8.10;99.90;;;;;;5054218;28;20048;-78
2021/03/30 03:27:02;;;;;;;130.82;53.25;;;8.10;99.90;;;;;;5054195;28;20311;-78
2021/03/30 03:29:29;;;;;;;135.02;63.00;;;8.10;99.90;;;;;;5055509;28;20032;-78
2021/03/30 03:31:55;;;;;;;118.03;49.72;;;8.10;99.90;;;;;;5054396;28;20029;-78
2021/03/30 03:34:21;;;;;;;129.00;52.50;;;8.10;99.90;;;;;;5054652;28;20013;-78
2021/03/30 03:36:49;;;;;;;131.80;57.40;;;8.10;99.90;;;;;;5055288;28;20433;-78
2021/03/30 03:39:18;;;;;;;146.30;71.53;;;8.10;99.90;;;;;;5053819;28;20021;-78
2021/03/30 03:41:45;;;;;;;136.63;62.90;;;8.10;99.90;;;;;;5053999;28;20120;-78
2021/03/30 03:44:11;;;;;;;138.35;65.20;;;8.10;99.90;;;;;;5053282;28;20014;-78
2021/03/30 03:46:38;;;;;;;144.93;65.18;;;8.20;99.90;;;;;;5053942;28;20060;-78
2021/03/30 03:49:05;;;;;;;131.77;56.88;;;8.10;99.90;;;;;;5055055;28;20028;-78
2021/03/30 03:51:35;;;;;;;158.45;71.28;;;8.10;99.90;;;;;;5044171;28;20033;-78
2021/03/30 03:54:05;;;;;;;163.98;70.03;;;8.10;99.90;;;;;;5033301;28;20037;-77
2021/03/30 03:56:38;;;;;;;126.45;52.90;;;8.20;99.90;;;;;;5033754;28;20098;-77
2021/03/30 03:59:11;;;;;;;112.10;49.53;;;8.20;99.90;;;;;;5053843;28;20022;-78
2021/03/30 04:01:44;;;;;;;99.68;47.38;;;8.20;99.90;;;;;;5053310;28;20509;-78
2021/03/30 04:04:14;;;;;;;;;;;8.20;99.90;;;;;;5054694;28;20029;-78
2021/03/30 04:06:48;;;;;;;107.13;46.03;;;8.20;99.90;;;;;;5054834;28;20285;-78
2021/03/30 04:09:18;;;;;;;115.00;49.53;;;8.20;99.90;;;;;;5054605;28;20116;-78
2021/03/30 04:11:46;;;;;;;111.70;49.97;;;8.20;99.90;;;;;;5054827;28;20098;-77
2021/03/30 04:14:12;;;;;;;116.40;51.05;;;8.20;99.90;;;;;;5051749;28;20474;-78
2021/03/30 04:16:38;;;;;;;129.65;56.05;;;8.20;99.90;;;;;;5050736;28;20036;-78
2021/03/30 04:19:09;;;;;;;125.05;53.35;;;8.20;99.90;;;;;;5043520;28;20031;-77
2021/03/30 04:21:38;;;;;;;120.80;56.72;;;8.20;99.90;;;;;;5053251;28;20056;-78
2021/03/30 04:24:04;;;;;;;111.88;51.22;;;8.20;99.90;;;;;;5052873;28;20021;-78
2021/03/30 04:26:30;;;;;;;102.97;48.10;;;8.20;99.90;;;;;;5052470;28;20429;-78
2021/03/30 04:28:56;;;;;;;109.72;48.70;;;8.30;99.90;;;;;;5054238;28;20039;-77
2021/03/30 04:31:21;;;;;;;109.18;48.88;;;8.30;99.90;;;;;;5054517;28;20516;-78
2021/03/30 04:33:47;;;;;;;103.65;46.08;;;8.30;99.90;;;;;;5053297;28;20460;-78
2021/03/30 04:36:13;;;;;;;106.28;48.78;;;8.30;99.90;;;;;;5054287;28;20104;-78
2021/03/30 04:38:39;;;;;;;121.30;51.70;;;8.30;99.90;;;;;;5053929;28;20029;-77
2021/03/30 04:41:07;;;;;;;107.82;48.33;;;8.30;99.90;;;;;;5053000;28;20017;-78
2021/03/30 04:43:32;;;;;;;100.47;47.03;;;8.30;99.90;;;;;;5052800;28;20474;-78
2021/03/30 04:45:58;;;;;;;108.18;47.50;;;8.30;99.90;;;;;;5054151;28;20040;-78
2021/03/30 04:48:24;;;;;;;105.65;44.70;;;8.20;99.90;;;;;;5054275;28;20036;-77
2021/03/30 04:50:50;;;;;;;102.10;45.78;;;8.20;99.90;;;;;;5054117;28;20480;-78
2021/03/30 04:53:15;;;;;;;101.50;48.75;;;8.30;99.90;;;;;;5052781;28;20394;-78
2021/03/30 04:55:41;;;;;;;110.95;51.85;;;8.30;99.90;;;;;;5052735;28;20029;-78
2021/03/30 04:58:07;;;;;;;106.07;48.80;;;8.30;99.90;;;;;;5053973;28;20032;-78
2021/03/30 05:00:33;;;;;;;105.65;46.47;;;8.30;99.90;;;;;;5053929;28;20021;-77
2021/03/30 05:02:58;;;;;;;110.78;49.45;;;8.30;99.90;;;;;;5053769;28;20391;-78
2021/03/30 05:05:24;;;;;;;105.65;48.85;;;8.30;99.90;;;;;;5052054;28;20398;-78
2021/03/30 05:07:50;;;;;;;98.75;47.78;;;8.30;99.90;;;;;;5051932;28;20390;-78
2021/03/30 05:10:16;;;;;;;102.45;45.47;;;8.30;99.90;;;;;;5051253;28;20029;-77
2021/03/30 05:12:41;;;;;;;99.60;46.00;;;8.30;99.90;;;;;;5051689;28;20027;-78
2021/03/30 05:15:08;;;;;;;96.80;45.60;;;8.30;99.90;;;;;;5051504;28;20021;-78
2021/03/30 05:17:34;;;;;;;97.93;46.90;;;8.40;99.90;;;;;;5052080;28;20686;-78
2021/03/30 05:20:01;;;;;;;122.10;56.33;;;8.40;99.90;;;;;;5052819;28;20028;-79
2021/03/30 05:22:27;;;;;;;116.97;56.92;;;8.40;99.90;;;;;;5053198;28;20033;-77
2021/03/30 05:24:53;;;;;;;134.85;61.30;;;8.40;99.90;;;;;;5052239;28;20047;-78
2021/03/30 05:27:18;;;;;;;93.97;45.42;;;8.40;99.90;;;;;;5053375;28;20032;-77
2021/03/30 05:29:44;;;;;;;85.40;42.22;;;8.50;99.90;;;;;;5053426;28;20033;-77
2021/03/30 05:32:12;;;;;;;90.22;42.03;;;8.40;99.90;;;;;;5051724;28;20386;-77
2021/03/30 05:34:38;;;;;;;81.70;38.75;;;8.50;99.90;;;;;;5052906;28;20029;-75
2021/03/30 05:37:04;;;;;;;79.28;38.13;;;8.50;99.90;;;;;;5052978;28;20029;-77
2021/03/30 05:39:31;;;;;;;83.07;37.70;;;8.50;99.90;;;;;;5050826;28;20072;-76
2021/03/30 05:41:57;;;;;;;88.38;36.33;;;8.50;99.90;;;;;;5051693;28;20055;-76
2021/03/30 05:44:23;;;;;;;81.03;38.40;;;8.50;99.90;;;;;;5051679;28;20484;-77
2021/03/30 05:47:06;;;;;;;90.30;40.88;;;8.60;99.90;;;;;;5051210;28;20438;-77
2021/03/30 05:49:34;;;;;;;;;;;8.60;99.90;;;;;;5053346;28;20099;-77
2021/03/30 05:52:01;;;;;;;93.45;42.28;;;8.70;99.90;;;;;;5050342;28;19909;-77
2021/03/30 05:54:30;;;;;;;103.07;46.00;;;8.70;99.90;;;;;;5052264;28;20028;-77
2021/03/30 05:56:59;;;;;;;103.65;48.38;;;8.80;99.90;;;;;;5051844;28;20060;-77
2021/03/30 05:59:26;;;;;;;107.90;53.05;;;8.80;99.90;;;;;;5052659;28;20025;-77
2021/03/30 06:01:52;;;;;;;135.68;66.85;;;8.80;99.90;;;;;;5053014;28;20024;-75
2021/03/30 06:04:18;;;;;;;125.93;59.60;;;8.80;99.90;;;;;;5051343;28;20029;-77
2021/03/30 06:06:45;;;;;;;121.30;56.85;;;8.90;99.90;;;;;;5051290;28;20112;-77
2021/03/30 06:09:11;;;;;;;107.00;49.72;;;9.00;99.90;;;;;;5051304;28;20032;-76
2021/03/30 06:11:36;;;;;;;96.68;45.17;;;9.00;99.90;;;;;;5051386;28;20075;-76
2021/03/30 06:14:02;;;;;;;78.47;40.00;;;9.00;99.90;;;;;;5043220;28;20120;-76
2021/03/30 06:16:37;;;;;;;87.22;43.03;;;9.00;99.90;;;;;;5077458;28;20053;-76
2021/03/30 06:19:17;;;;;;;103.15;51.42;;;9.10;99.90;;;;;;5047493;28;20029;-78
2021/03/30 06:22:01;;;;;;;98.72;47.67;;;9.20;99.90;;;;;;5049610;28;20040;-78
2021/03/30 06:24:28;;;;;;;81.80;42.15;;;9.20;99.90;;;;;;5064136;28;20025;-77
2021/03/30 06:27:05;;;;;;;82.55;42.17;;;9.20;99.90;;;;;;5048132;28;20494;-77
2021/03/30 06:29:38;;;;;;;94.70;44.50;;;9.20;99.90;;;;;;5041175;28;20025;-77
2021/03/30 06:32:05;;;;;;;92.68;46.38;;;9.30;99.90;;;;;;5050177;28;20071;-77
2021/03/30 06:34:32;;;;;;;89.60;43.97;;;9.30;99.90;;;;;;5034805;28;20068;-78
2021/03/30 06:36:58;;;;;;;85.38;42.28;;;9.30;99.90;;;;;;5044273;28;20505;-79
2021/03/30 06:39:50;;;;;;;80.20;41.22;;;9.30;99.90;;;;;;5042083;28;20052;-78
2021/03/30 06:42:29;;;;;;;76.03;40.08;;;9.40;99.90;;;;;;5047258;28;20039;-77
2021/03/30 06:44:55;;;;;;;73.85;39.88;;;9.40;99.90;;;;;;5042768;28;20471;-78
2021/03/30 06:47:23;;;;;;;76.95;41.22;;;9.40;99.90;;;;;;5045709;28;20041;-76
2021/03/30 06:50:03;;;;;;;78.63;40.40;;;9.40;99.90;;;;;;5050127;28;20024;-76
2021/03/30 06:52:31;;;;;;;82.90;41.97;;;9.50;99.90;;;;;;5052129;28;20029;-77
2021/03/30 06:55:02;;;;;;;88.63;42.53;;;9.50;99.90;;;;;;5046126;28;20464;-77
2021/03/30 06:57:38;;;;;;;85.78;42.95;;;9.60;99.90;;;;;;5050068;28;20091;-76
2021/03/30 07:00:10;;;;;;;76.40;40.70;;;9.70;99.90;;;;;;5050925;28;20024;-78
2021/03/30 07:02:44;;;;;;;82.13;40.13;;;9.80;99.90;;;;;;5045889;28;20521;-79
2021/03/30 07:05:20;;;;;;;77.75;40.90;;;9.80;99.90;;;;;;5041352;28;20027;-78
2021/03/30 07:07:51;;;;;;;71.38;37.00;;;9.90;99.90;;;;;;5048029;28;20048;-78
2021/03/30 07:10:16;;;;;;;72.63;37.83;;;10.00;99.90;;;;;;5042305;28;20092;-77
2021/03/30 07:12:43;;;;;;;74.70;37.47;;;10.00;99.90;;;;;;5043178;28;20033;-78
2021/03/30 07:15:09;;;;;;;69.78;37.05;;;10.00;99.90;;;;;;5042941;28;20102;-78
2021/03/30 07:17:41;;;;;;;71.30;39.17;;;10.20;99.90;;;;;;5047031;28;20025;-78
2021/03/30 07:20:08;;;;;;;76.38;37.70;;;10.20;99.90;;;;;;5053495;28;20025;-77
2021/03/30 07:22:37;;;;;;;77.50;39.33;;;10.30;99.90;;;;;;5053569;28;20032;-78
2021/03/30 07:25:09;;;;;;;77.75;39.22;;;10.40;99.90;;;;;;5049153;28;20029;-77
2021/03/30 07:27:56;;;;;;;68.80;37.53;;;10.50;99.90;;;;;;5047140;28;20033;-76
2021/03/30 07:30:23;;;;;;;75.15;35.72;;;10.60;99.90;;;;;;5044595;28;20036;-77
2021/03/30 07:33:21;;;;;;;75.72;38.05;;;10.70;99.90;;;;;;5045044;28;20032;-77
2021/03/30 07:35:47;;;;;;;62.28;33.83;;;10.70;99.90;;;;;;5047240;28;20025;-76
2021/03/30 07:38:17;;;;;;;65.95;34.40;;;10.70;99.90;;;;;;5044283;28;20107;-78
2021/03/30 07:40:44;;;;;;;73.05;37.17;;;10.80;99.90;;;;;;5044909;28;20025;-78
2021/03/30 07:43:13;;;;;;;69.40;38.53;;;10.80;99.90;;;;;;5044530;28;20515;-77
2021/03/30 07:45:43;;;;;;;69.22;37.88;;;10.90;99.90;;;;;;5043431;28;20028;-76
2021/03/30 07:48:15;;;;;;;68.93;35.97;;;10.90;99.90;;;;;;5053247;28;20476;-77
2021/03/30 07:50:49;;;;;;;75.85;40.33;;;11.00;99.90;;;;;;5046458;28;20028;-77
2021/03/30 07:53:56;;;;;;;74.10;39.42;;;11.10;99.90;;;;;;5054350;28;20409;-77
2021/03/30 07:56:22;;;;;;;64.90;34.20;;;11.10;99.90;;;;;;5051994;28;20029;-78
2021/03/30 07:58:48;;;;;;;61.92;35.40;;;11.00;99.90;;;;;;5051675;28;20033;-78
2021/03/30 08:01:14;;;;;;;64.65;34.10;;;11.00;99.90;;;;;;5052946;28;20517;-79
2021/03/30 08:03:43;;;;;;;70.15;38.25;;;11.00;99.90;;;;;;5052440;28;20032;-78
2021/03/30 08:06:12;;;;;;;69.22;36.25;;;10.90;99.90;;;;;;5050868;28;20040;-78
2021/03/30 08:09:07;;;;;;;73.18;38.42;;;11.00;99.90;;;;;;5049202;28;20013;-77
2021/03/30 08:11:51;;;;;;;67.07;36.50;;;11.00;99.90;;;;;;5051868;28;20036;-77
2021/03/30 08:14:23;;;;;;;72.45;39.05;;;11.00;99.90;;;;;;5053505;28;20474;-77
2021/03/30 08:16:52;;;;;;;67.32;37.38;;;11.10;99.90;;;;;;5054952;28;20033;-77
2021/03/30 08:19:19;;;;;;;69.93;41.00;;;11.20;99.90;;;;;;5054512;28;20024;-77
2021/03/30 08:21:52;;;;;;;81.20;43.45;;;11.20;99.90;;;;;;5054784;28;20105;-77
2021/03/30 08:24:19;;;;;;;75.32;42.55;;;11.30;99.90;;;;;;5052992;28;20025;-77
2021/03/30 08:26:46;;;;;;;81.18;42.33;;;11.40;99.90;;;;;;5049738;28;20517;-77
2021/03/30 08:29:22;;;;;;;77.22;42.95;;;11.40;99.90;;;;;;5052881;28;20017;-77
2021/03/30 08:31:50;;;;;;;71.35;41.95;;;11.40;99.90;;;;;;5052865;28;20394;-78
2021/03/30 08:34:26;;;;;;;71.85;40.35;;;11.40;99.90;;;;;;5053077;28;20352;-77
2021/03/30 08:36:58;;;;;;;72.00;44.42;;;11.50;99.90;;;;;;5051484;28;20032;-78
2021/03/30 08:39:24;;;;;;;70.35;40.35;;;11.60;99.90;;;;;;5052046;28;20028;-78
2021/03/30 08:41:58;;;;;;;68.55;40.47;;;11.70;99.90;;;;;;5052726;28;20036;-78
2021/03/30 08:44:29;;;;;;;76.55;41.42;;;11.80;99.90;;;;;;5052561;28;20043;-78
2021/03/30 08:46:56;;;;;;;74.25;40.58;;;11.80;99.90;;;;;;5051367;28;20040;-77
2021/03/30 08:49:25;;;;;;;75.45;41.05;;;11.90;99.90;;;;;;5068032;28;20025;-77
2021/03/30 08:51:52;;;;;;;74.60;40.92;;;12.00;99.90;;;;;;5052295;28;20025;-78
2021/03/30 08:54:23;;;;;;;68.75;41.58;;;12.00;99.90;;;;;;5052015;28;20033;-77
2021/03/30 08:56:49;;;;;;;70.72;38.70;;;12.20;99.90;;;;;;5052977;28;20134;-77
2021/03/30 08:59:20;;;;;;;66.72;36.65;;;12.20;99.90;;;;;;5052580;28;20482;-78
2021/03/30 09:01:54;;;;;;;66.93;39.25;;;12.30;99.90;;;;;;5051757;28;20017;-84
2021/03/30 09:04:20;;;;;;;65.07;36.50;;;12.40;99.90;;;;;;5052352;28;20029;-80
2021/03/30 09:06:53;;;;;;;74.20;39.05;;;12.40;99.90;;;;;;5035848;28;20573;-80
2021/03/30 09:09:20;;;;;;;71.93;38.97;;;12.40;99.90;;;;;;5051705;28;20025;-80
2021/03/30 09:11:46;;;;;;;69.82;35.40;;;12.40;99.90;;;;;;5053581;28;20059;-79
2021/03/30 09:14:18;;;;;;;64.32;37.83;;;12.40;99.90;;;;;;5052079;28;20052;-80
2021/03/30 09:16:45;;;;;;;67.15;37.63;;;12.50;99.90;;;;;;5051828;28;20029;-80
2021/03/30 09:19:30;;;;;;;62.17;36.35;;;12.50;99.90;;;;;;5053486;28;20025;-81
2021/03/30 09:22:19;;;;;;;68.65;35.90;;;12.50;99.90;;;;;;5052835;28;20025;-80
2021/03/30 09:24:59;;;;;;;72.00;38.40;;;12.60;99.90;;;;;;5052161;28;20496;-81
2021/03/30 09:27:43;;;;;;;60.83;35.92;;;12.60;99.90;;;;;;5051855;28;20025;-81
2021/03/30 09:30:13;;;;;;;62.80;35.33;;;12.70;99.90;;;;;;5053587;28;20021;-81
2021/03/30 09:32:41;;;;;;;61.28;34.60;;;12.70;99.90;;;;;;5035365;28;20537;-81
2021/03/30 09:35:17;;;;;;;58.92;34.80;;;12.70;99.90;;;;;;5050662;28;20032;-77
2021/03/30 09:37:57;;;;;;;64.68;35.33;;;12.80;99.90;;;;;;5051608;28;20037;-78
2021/03/30 09:40:26;;;;;;;64.28;37.45;;;13.00;99.90;;;;;;5048509;28;20468;-78
2021/03/30 09:42:53;;;;;;;57.92;34.42;;;13.10;99.90;;;;;;5060253;28;20021;-78
2021/03/30 09:45:27;;;;;;;60.78;35.97;;;13.30;99.90;;;;;;5051363;28;20075;-78
2021/03/30 09:47:55;;;;;;;63.60;35.78;;;13.50;99.90;;;;;;5050341;28;20033;-77
2021/03/30 09:50:23;;;;;;;64.95;36.33;;;13.60;99.90;;;;;;5050937;28;20032;-78
2021/03/30 09:52:52;;;;;;;55.78;30.67;;;13.80;99.90;;;;;;5051654;28;20035;-78
2021/03/30 09:55:32;;;;;;;52.00;32.65;;;13.80;99.90;;;;;;5049902;28;20554;-77
2021/03/30 09:58:03;;;;;;;54.08;31.42;;;14.00;99.90;;;;;;5050927;28;20049;-78
2021/03/30 10:00:31;;;;;;;49.65;29.77;;;14.10;99.90;;;;;;5049574;28;20059;-78
2021/03/30 10:02:57;;;;;;;58.00;29.75;;;14.00;99.90;;;;;;5051103;28;20028;-79
2021/03/30 10:05:23;;;;;;;57.33;32.00;;;14.20;99.90;;;;;;5053439;28;20051;-78
2021/03/30 10:07:48;;;;;;;49.10;27.67;;;14.20;99.90;;;;;;5052500;28;20033;-79
2021/03/30 10:10:15;;;;;;;41.10;23.35;;;14.30;99.90;;;;;;5051120;28;20028;-78
2021/03/30 10:12:50;;;;;;;44.47;26.45;;;14.40;99.90;;;;;;5051737;28;20033;-81
2021/03/30 10:15:16;;;;;;;40.80;24.17;;;14.50;99.90;;;;;;5047576;28;20060;-80
2021/03/30 10:17:43;;;;;;;47.58;26.75;;;14.60;97.50;;;;;;5049439;28;20056;-80
2021/03/30 10:20:13;;;;;;;39.00;23.67;;;14.80;99.60;;;;;;5050020;28;20543;-79
2021/03/30 10:22:47;;;;;;;42.22;24.85;;;14.90;99.80;;;;;;5050948;28;20060;-80
2021/03/30 10:25:17;;;;;;;41.28;24.38;;;14.90;99.20;;;;;;5064514;28;20474;-79
2021/03/30 10:27:50;;;;;;;42.33;24.45;;;14.90;93.90;;;;;;5044394;28;20033;-80
2021/03/30 10:30:17;;;;;;;42.13;22.10;;;15.10;98.40;;;;;;5051004;28;20025;-79
2021/03/30 10:32:51;;;;;;;39.78;23.95;;;15.20;93.40;;;;;;5051039;28;20027;-80
2021/03/30 10:35:17;;;;;;;33.40;22.25;;;15.40;91.90;;;;;;5052475;28;20025;-80
2021/03/30 10:37:43;;;;;;;36.63;21.63;;;15.50;88.70;;;;;;5052538;28;20391;-81
2021/03/30 10:40:11;;;;;;;44.55;22.08;;;15.70;91.60;;;;;;5049011;28;20025;-80
2021/03/30 10:42:40;;;;;;;42.67;24.10;;;15.60;86.90;;;;;;5047962;28;20013;-80
2021/03/30 10:45:11;;;;;;;37.72;23.52;;;15.70;83.30;;;;;;5050337;28;20033;-80
2021/03/30 10:47:42;;;;;;;37.28;22.48;;;15.70;83.20;;;;;;5050825;28;20398;-80
2021/03/30 10:50:14;;;;;;;28.75;18.92;;;15.70;82.70;;;;;;5050831;28;20544;-81
2021/03/30 10:52:41;;;;;;;32.00;15.57;;;15.50;74.60;;;;;;5052433;28;20434;-80
2021/03/30 10:55:11;;;;;;;30.88;18.05;;;15.40;73.30;;;;;;5052283;28;20483;-80
2021/03/30 10:57:42;;;;;;;36.80;19.73;;;15.40;74.50;;;;;;5051048;28;20021;-81
2021/03/30 11:00:10;;;;;;;29.88;17.10;;;15.40;73.90;;;;;;5050740;28;20075;-79
2021/03/30 11:02:37;;;;;;;33.88;17.27;;;15.40;73.10;;;;;;5049200;28;20132;-79
2021/03/30 11:05:04;;;;;;;40.60;20.05;;;15.50;74.60;;;;;;5050898;28;20029;-79
2021/03/30 11:07:29;;;;;;;42.55;21.13;;;15.60;76.70;;;;;;5050806;28;20091;-78
2021/03/30 11:09:55;;;;;;;26.17;15.43;;;15.60;77.40;;;;;;5050337;28;20025;-78
2021/03/30 11:12:21;;;;;;;25.52;16.58;;;15.70;73.10;;;;;;5052534;28;20090;-79
2021/03/30 11:14:46;;;;;;;24.67;13.38;;;15.80;72.50;;;;;;5053004;28;20064;-79
2021/03/30 11:17:12;;;;;;;28.30;14.63;;;15.80;70.80;;;;;;5054676;28;20026;-78
2021/03/30 11:19:38;;;;;;;32.33;18.25;;;15.90;70.90;;;;;;5055657;28;20031;-78
2021/03/30 11:22:05;;;;;;;27.30;15.80;;;15.90;70.20;;;;;;5054278;28;20170;-79
2021/03/30 11:24:34;;;;;;;29.25;15.35;;;16.00;70.60;;;;;;5044931;28;20116;-78
2021/03/30 11:27:00;;;;;;;26.02;15.32;;;16.10;69.80;;;;;;5054038;28;20128;-79
2021/03/30 11:39:49;;;;;;;22.98;14.10;;;16.50;66.60;;;;;;5050741;28;20044;-78
2021/03/30 11:42:14;;;;;;;23.77;14.00;;;16.40;67.20;;;;;;5055270;28;20136;-78
2021/03/30 11:44:40;;;;;;;24.70;14.65;;;16.40;66.90;;;;;;5055196;28;20488;-78
2021/03/30 11:47:06;;;;;;;22.88;13.80;;;16.40;68.90;;;;;;5055195;28;20068;-78
2021/03/30 11:49:33;;;;;;;22.77;14.05;;;16.50;69.00;;;;;;5055339;28;20033;-78
2021/03/30 11:52:00;;;;;;;24.15;13.20;;;16.60;68.50;;;;;;5054033;28;20024;-79
2021/03/30 11:54:26;;;;;;;22.23;12.10;;;16.70;69.90;;;;;;5054902;28;20025;-78
2021/03/30 11:56:52;;;;;;;22.27;12.90;;;16.70;67.00;;;;;;5053840;28;20048;-78
2021/03/30 11:59:18;;;;;;;20.05;12.45;;;16.60;65.70;;;;;;5054978;28;20470;-78
2021/03/30 12:01:44;;;;;;;22.33;13.65;;;16.70;66.90;;;;;;5054981;28;20067;-78
2021/03/30 12:04:10;;;;;;;19.63;13.63;;;16.80;68.00;;;;;;5053585;28;20025;-78
2021/03/30 12:06:35;;;;;;;19.27;12.40;;;16.90;68.50;;;;;;5053485;28;20485;-79
2021/03/30 12:09:02;;;;;;;16.52;11.80;;;17.00;65.40;;;;;;5054265;28;20032;-79
2021/03/30 12:11:29;;;;;;;21.13;13.23;;;17.00;66.90;;;;;;5054775;28;20037;-79
2021/03/30 12:13:55;;;;;;;22.25;13.07;;;16.90;66.10;;;;;;5054664;28;20096;-78
2021/03/30 12:16:21;;;;;;;20.13;13.73;;;16.90;65.10;;;;;;5054797;28;20054;-79
2021/03/30 12:18:47;;;;;;;18.42;13.10;;;16.80;68.20;;;;;;5054806;28;20025;-79
2021/03/30 12:21:13;;;;;;;21.30;13.60;;;16.70;67.90;;;;;;5053432;28;20489;-80
2021/03/30 12:23:39;;;;;;;20.65;13.50;;;16.70;66.90;;;;;;5052337;28;20118;-79
2021/03/30 12:26:04;;;;;;;21.58;13.55;;;16.60;67.40;;;;;;5051952;28;20494;-79
2021/03/30 12:28:30;;;;;;;20.05;11.80;;;16.50;67.10;;;;;;5054516;28;20025;-79
2021/03/30 12:30:56;;;;;;;24.98;14.70;;;16.60;67.60;;;;;;5050265;28;20386;-79
2021/03/30 12:33:21;;;;;;;24.58;12.75;;;16.60;69.30;;;;;;5052358;28;20052;-79
2021/03/30 12:35:47;;;;;;;21.90;12.70;;;16.60;68.50;;;;;;5053334;28;20032;-79
2021/03/30 12:38:13;;;;;;;20.17;12.48;;;16.60;68.70;;;;;;5052763;28;20029;-78
2021/03/30 12:40:38;;;;;;;19.17;13.10;;;16.60;67.90;;;;;;5052675;28;20463;-78
2021/03/30 12:43:05;;;;;;;19.63;13.02;;;16.70;68.90;;;;;;5050874;28;20013;-78
2021/03/30 12:45:34;;;;;;;21.83;13.05;;;16.70;67.80;;;;;;5051984;28;20131;-78
2021/03/30 12:48:01;;;;;;;17.67;12.02;;;16.60;67.80;;;;;;5054123;28;20063;-78